sensor_id;sensor_type;location;lat;lon;timestamp;P1;durP1;ratioP1;P2;durP2;ratioP2
21741;SDS011;11033;47.490;11.116;2022-11-30T00:00:12;12.43;;;10.05;;
21741;SDS011;11033;47.490;11.116;2022-11-30T00:02:38;11.20;;;9.75;;
21741;SDS011;11033;47.490;11.116;2022-11-30T00:05:04;15.77;;;11.13;;
21741;SDS011;11033;47.490;11.116;2022-11-30T00:07:29;10.45;;;8.02;;
21741;SDS011;11033;47.490;11.116;2022-11-30T00:09:55;9.40;;;8.30;;
21741;SDS011;11033;47.490;11.116;2022-11-30T00:12:20;9.13;;;7.97;;
21741;SDS011;11033;47.490;11.116;2022-11-30T00:14:45;7.47;;;6.70;;
21741;SDS011;11033;47.490;11.116;2022-11-30T00:17:11;10.35;;;8.55;;
21741;SDS011;11033;47.490;11.116;2022-11-30T00:19:36;10.17;;;8.70;;
21741;SDS011;11033;47.490;11.116;2022-11-30T00:22:01;10.13;;;7.50;;
21741;SDS011;11033;47.490;11.116;2022-11-30T00:24:27;13.70;;;9.50;;
21741;SDS011;11033;47.490;11.116;2022-11-30T00:26:52;9.57;;;7.77;;
21741;SDS011;11033;47.490;11.116;2022-11-30T00:29:17;11.57;;;8.03;;
21741;SDS011;11033;47.490;11.116;2022-11-30T00:31:43;11.05;;;7.72;;
21741;SDS011;11033;47.490;11.116;2022-11-30T00:34:08;10.43;;;8.57;;
21741;SDS011;11033;47.490;11.116;2022-11-30T00:36:33;16.40;;;11.15;;
21741;SDS011;11033;47.490;11.116;2022-11-30T00:38:59;9.95;;;8.35;;
21741;SDS011;11033;47.490;11.116;2022-11-30T00:41:24;9.65;;;8.05;;
21741;SDS011;11033;47.490;11.116;2022-11-30T00:43:49;8.25;;;6.90;;
21741;SDS011;11033;47.490;11.116;2022-11-30T00:46:15;11.70;;;8.77;;
21741;SDS011;11033;47.490;11.116;2022-11-30T00:48:40;9.82;;;7.57;;
21741;SDS011;11033;47.490;11.116;2022-11-30T00:51:07;9.65;;;8.05;;
21741;SDS011;11033;47.490;11.116;2022-11-30T00:53:33;8.98;;;6.82;;
21741;SDS011;11033;47.490;11.116;2022-11-30T00:55:59;10.00;;;7.80;;
21741;SDS011;11033;47.490;11.116;2022-11-30T00:58:24;9.27;;;7.65;;
21741;SDS011;11033;47.490;11.116;2022-11-30T01:00:49;9.10;;;8.00;;
21741;SDS011;11033;47.490;11.116;2022-11-30T01:03:15;12.13;;;8.55;;
21741;SDS011;11033;47.490;11.116;2022-11-30T01:05:40;11.25;;;8.60;;
21741;SDS011;11033;47.490;11.116;2022-11-30T01:08:09;10.27;;;7.78;;
21741;SDS011;11033;47.490;11.116;2022-11-30T01:10:37;11.60;;;8.85;;
21741;SDS011;11033;47.490;11.116;2022-11-30T01:13:03;12.20;;;9.20;;
21741;SDS011;11033;47.490;11.116;2022-11-30T01:15:29;11.40;;;8.93;;
21741;SDS011;11033;47.490;11.116;2022-11-30T01:17:55;9.32;;;7.43;;
21741;SDS011;11033;47.490;11.116;2022-11-30T01:20:22;11.13;;;8.57;;
21741;SDS011;11033;47.490;11.116;2022-11-30T01:22:47;10.10;;;7.80;;
21741;SDS011;11033;47.490;11.116;2022-11-30T01:25:13;10.90;;;8.07;;
21741;SDS011;11033;47.490;11.116;2022-11-30T01:27:38;11.80;;;8.57;;
21741;SDS011;11033;47.490;11.116;2022-11-30T01:30:03;12.85;;;8.85;;
21741;SDS011;11033;47.490;11.116;2022-11-30T01:32:29;11.35;;;8.65;;
21741;SDS011;11033;47.490;11.116;2022-11-30T01:34:55;11.17;;;8.70;;
21741;SDS011;11033;47.490;11.116;2022-11-30T01:37:20;10.80;;;9.20;;
21741;SDS011;11033;47.490;11.116;2022-11-30T01:39:45;11.65;;;8.85;;
21741;SDS011;11033;47.490;11.116;2022-11-30T01:42:12;15.45;;;11.05;;
21741;SDS011;11033;47.490;11.116;2022-11-30T01:47:16;10.88;;;8.15;;
21741;SDS011;11033;47.490;11.116;2022-11-30T01:49:45;12.70;;;9.05;;
21741;SDS011;11033;47.490;11.116;2022-11-30T01:57:19;7.95;;;6.75;;
21741;SDS011;11033;47.490;11.116;2022-11-30T01:59:50;11.23;;;8.10;;
21741;SDS011;11033;47.490;11.116;2022-11-30T02:02:17;12.05;;;9.38;;
21741;SDS011;11033;47.490;11.116;2022-11-30T02:04:49;11.68;;;8.32;;
21741;SDS011;11033;47.490;11.116;2022-11-30T02:07:14;13.30;;;9.98;;
21741;SDS011;11033;47.490;11.116;2022-11-30T02:09:41;12.50;;;9.60;;
21741;SDS011;11033;47.490;11.116;2022-11-30T02:12:10;12.20;;;9.73;;
21741;SDS011;11033;47.490;11.116;2022-11-30T02:14:48;12.55;;;9.18;;
21741;SDS011;11033;47.490;11.116;2022-11-30T02:23:00;15.38;;;11.13;;
21741;SDS011;11033;47.490;11.116;2022-11-30T02:25:47;16.57;;;10.47;;
21741;SDS011;11033;47.490;11.116;2022-11-30T02:31:20;15.60;;;9.77;;
21741;SDS011;11033;47.490;11.116;2022-11-30T02:33:50;11.77;;;9.07;;
21741;SDS011;11033;47.490;11.116;2022-11-30T02:36:16;14.98;;;10.68;;
21741;SDS011;11033;47.490;11.116;2022-11-30T02:38:44;11.98;;;9.25;;
21741;SDS011;11033;47.490;11.116;2022-11-30T02:41:10;20.40;;;12.15;;
21741;SDS011;11033;47.490;11.116;2022-11-30T02:43:35;17.35;;;11.10;;
21741;SDS011;11033;47.490;11.116;2022-11-30T02:46:04;17.50;;;11.95;;
21741;SDS011;11033;47.490;11.116;2022-11-30T02:51:22;21.35;;;12.38;;
21741;SDS011;11033;47.490;11.116;2022-11-30T02:53:50;16.63;;;11.13;;
21741;SDS011;11033;47.490;11.116;2022-11-30T02:56:16;17.05;;;11.57;;
21741;SDS011;11033;47.490;11.116;2022-11-30T02:58:42;15.23;;;10.23;;
21741;SDS011;11033;47.490;11.116;2022-11-30T03:01:08;16.08;;;11.07;;
21741;SDS011;11033;47.490;11.116;2022-11-30T03:03:33;14.23;;;9.35;;
21741;SDS011;11033;47.490;11.116;2022-11-30T03:05:58;23.03;;;13.27;;
21741;SDS011;11033;47.490;11.116;2022-11-30T03:08:23;15.37;;;9.67;;
21741;SDS011;11033;47.490;11.116;2022-11-30T03:10:49;18.90;;;11.50;;
21741;SDS011;11033;47.490;11.116;2022-11-30T03:13:14;15.15;;;9.60;;
21741;SDS011;11033;47.490;11.116;2022-11-30T03:15:39;15.23;;;9.63;;
21741;SDS011;11033;47.490;11.116;2022-11-30T03:18:05;16.27;;;10.43;;
21741;SDS011;11033;47.490;11.116;2022-11-30T03:20:30;21.48;;;12.68;;
21741;SDS011;11033;47.490;11.116;2022-11-30T03:22:59;18.63;;;11.38;;
21741;SDS011;11033;47.490;11.116;2022-11-30T03:25:25;17.10;;;10.70;;
21741;SDS011;11033;47.490;11.116;2022-11-30T03:27:51;18.67;;;11.85;;
21741;SDS011;11033;47.490;11.116;2022-11-30T03:30:16;15.93;;;11.15;;
21741;SDS011;11033;47.490;11.116;2022-11-30T03:32:41;17.08;;;10.65;;
21741;SDS011;11033;47.490;11.116;2022-11-30T03:35:07;14.93;;;10.43;;
21741;SDS011;11033;47.490;11.116;2022-11-30T03:37:32;17.15;;;11.38;;
21741;SDS011;11033;47.490;11.116;2022-11-30T03:39:57;21.02;;;12.35;;
21741;SDS011;11033;47.490;11.116;2022-11-30T03:42:23;22.53;;;13.77;;
21741;SDS011;11033;47.490;11.116;2022-11-30T03:44:48;19.50;;;11.70;;
21741;SDS011;11033;47.490;11.116;2022-11-30T03:47:13;18.02;;;10.25;;
21741;SDS011;11033;47.490;11.116;2022-11-30T03:49:39;19.45;;;12.35;;
21741;SDS011;11033;47.490;11.116;2022-11-30T03:52:04;20.47;;;12.03;;
21741;SDS011;11033;47.490;11.116;2022-11-30T03:54:29;21.98;;;12.95;;
21741;SDS011;11033;47.490;11.116;2022-11-30T03:56:54;15.60;;;10.10;;
21741;SDS011;11033;47.490;11.116;2022-11-30T03:59:20;18.40;;;12.43;;
21741;SDS011;11033;47.490;11.116;2022-11-30T04:01:45;20.73;;;12.88;;
21741;SDS011;11033;47.490;11.116;2022-11-30T04:04:10;22.07;;;12.50;;
21741;SDS011;11033;47.490;11.116;2022-11-30T04:06:36;19.90;;;12.05;;
21741;SDS011;11033;47.490;11.116;2022-11-30T04:09:02;16.13;;;10.45;;
21741;SDS011;11033;47.490;11.116;2022-11-30T04:11:27;21.98;;;14.05;;
21741;SDS011;11033;47.490;11.116;2022-11-30T04:13:53;23.48;;;13.48;;
21741;SDS011;11033;47.490;11.116;2022-11-30T04:16:18;24.83;;;14.80;;
21741;SDS011;11033;47.490;11.116;2022-11-30T04:18:43;50.10;;;20.88;;
21741;SDS011;11033;47.490;11.116;2022-11-30T04:21:09;31.07;;;17.17;;
21741;SDS011;11033;47.490;11.116;2022-11-30T04:23:35;29.20;;;16.90;;
21741;SDS011;11033;47.490;11.116;2022-11-30T04:26:03;27.63;;;15.90;;
21741;SDS011;11033;47.490;11.116;2022-11-30T04:28:29;44.00;;;20.73;;
21741;SDS011;11033;47.490;11.116;2022-11-30T04:30:55;32.08;;;17.67;;
21741;SDS011;11033;47.490;11.116;2022-11-30T04:33:21;36.78;;;18.80;;
21741;SDS011;11033;47.490;11.116;2022-11-30T04:35:50;45.60;;;21.85;;
21741;SDS011;11033;47.490;11.116;2022-11-30T04:38:18;40.53;;;20.75;;
21741;SDS011;11033;47.490;11.116;2022-11-30T04:40:44;38.10;;;21.75;;
21741;SDS011;11033;47.490;11.116;2022-11-30T04:43:12;31.38;;;17.80;;
21741;SDS011;11033;47.490;11.116;2022-11-30T04:45:38;34.08;;;16.83;;
21741;SDS011;11033;47.490;11.116;2022-11-30T04:48:04;33.58;;;17.98;;
21741;SDS011;11033;47.490;11.116;2022-11-30T04:50:30;48.05;;;21.67;;
21741;SDS011;11033;47.490;11.116;2022-11-30T04:52:55;42.63;;;21.17;;
21741;SDS011;11033;47.490;11.116;2022-11-30T04:55:21;39.60;;;21.67;;
21741;SDS011;11033;47.490;11.116;2022-11-30T04:57:46;56.28;;;25.30;;
21741;SDS011;11033;47.490;11.116;2022-11-30T05:00:12;40.22;;;20.70;;
21741;SDS011;11033;47.490;11.116;2022-11-30T05:02:39;45.75;;;21.80;;
21741;SDS011;11033;47.490;11.116;2022-11-30T05:05:04;42.80;;;21.88;;
21741;SDS011;11033;47.490;11.116;2022-11-30T05:07:30;40.95;;;21.13;;
21741;SDS011;11033;47.490;11.116;2022-11-30T05:09:55;40.08;;;21.05;;
21741;SDS011;11033;47.490;11.116;2022-11-30T05:12:20;38.87;;;21.40;;
21741;SDS011;11033;47.490;11.116;2022-11-30T05:14:46;42.30;;;22.03;;
21741;SDS011;11033;47.490;11.116;2022-11-30T05:17:11;44.40;;;22.33;;
21741;SDS011;11033;47.490;11.116;2022-11-30T05:19:36;37.60;;;20.00;;
21741;SDS011;11033;47.490;11.116;2022-11-30T05:22:02;43.33;;;22.30;;
21741;SDS011;11033;47.490;11.116;2022-11-30T05:24:27;45.45;;;24.17;;
21741;SDS011;11033;47.490;11.116;2022-11-30T05:26:52;45.67;;;22.25;;
21741;SDS011;11033;47.490;11.116;2022-11-30T05:29:18;58.50;;;25.33;;
21741;SDS011;11033;47.490;11.116;2022-11-30T05:31:43;46.10;;;24.30;;
21741;SDS011;11033;47.490;11.116;2022-11-30T05:34:09;42.40;;;21.70;;
21741;SDS011;11033;47.490;11.116;2022-11-30T05:36:34;40.70;;;22.73;;
21741;SDS011;11033;47.490;11.116;2022-11-30T05:38:59;76.82;;;30.98;;
21741;SDS011;11033;47.490;11.116;2022-11-30T05:41:25;49.57;;;24.77;;
21741;SDS011;11033;47.490;11.116;2022-11-30T05:43:50;51.38;;;26.00;;
21741;SDS011;11033;47.490;11.116;2022-11-30T05:46:15;49.40;;;24.50;;
21741;SDS011;11033;47.490;11.116;2022-11-30T05:48:40;51.42;;;26.70;;
21741;SDS011;11033;47.490;11.116;2022-11-30T05:51:13;47.63;;;24.55;;
21741;SDS011;11033;47.490;11.116;2022-11-30T05:53:43;48.28;;;24.67;;
21741;SDS011;11033;47.490;11.116;2022-11-30T05:56:14;57.95;;;25.45;;
21741;SDS011;11033;47.490;11.116;2022-11-30T05:58:42;64.80;;;27.30;;
21741;SDS011;11033;47.490;11.116;2022-11-30T06:01:15;44.35;;;22.80;;
21741;SDS011;11033;47.490;11.116;2022-11-30T06:03:51;46.17;;;23.48;;
21741;SDS011;11033;47.490;11.116;2022-11-30T06:06:17;61.67;;;29.15;;
21741;SDS011;11033;47.490;11.116;2022-11-30T06:08:43;52.17;;;25.88;;
21741;SDS011;11033;47.490;11.116;2022-11-30T06:11:09;51.40;;;25.38;;
21741;SDS011;11033;47.490;11.116;2022-11-30T06:13:35;52.67;;;26.38;;
21741;SDS011;11033;47.490;11.116;2022-11-30T06:16:00;43.97;;;23.30;;
21741;SDS011;11033;47.490;11.116;2022-11-30T06:18:27;42.53;;;23.38;;
21741;SDS011;11033;47.490;11.116;2022-11-30T06:20:52;49.05;;;24.77;;
21741;SDS011;11033;47.490;11.116;2022-11-30T06:23:18;40.70;;;22.63;;
21741;SDS011;11033;47.490;11.116;2022-11-30T06:25:43;47.05;;;24.60;;
21741;SDS011;11033;47.490;11.116;2022-11-30T06:28:09;51.80;;;25.80;;
21741;SDS011;11033;47.490;11.116;2022-11-30T06:30:34;46.40;;;21.80;;
21741;SDS011;11033;47.490;11.116;2022-11-30T06:33:00;59.70;;;26.17;;
21741;SDS011;11033;47.490;11.116;2022-11-30T06:35:25;42.58;;;21.67;;
21741;SDS011;11033;47.490;11.116;2022-11-30T06:37:51;34.53;;;19.30;;
21741;SDS011;11033;47.490;11.116;2022-11-30T06:40:16;44.03;;;23.80;;
21741;SDS011;11033;47.490;11.116;2022-11-30T06:42:41;39.53;;;21.48;;
21741;SDS011;11033;47.490;11.116;2022-11-30T06:45:07;41.15;;;21.17;;
21741;SDS011;11033;47.490;11.116;2022-11-30T06:47:33;59.55;;;26.58;;
21741;SDS011;11033;47.490;11.116;2022-11-30T06:49:58;48.33;;;24.00;;
21741;SDS011;11033;47.490;11.116;2022-11-30T06:52:23;51.53;;;26.07;;
21741;SDS011;11033;47.490;11.116;2022-11-30T06:54:49;46.78;;;24.20;;
21741;SDS011;11033;47.490;11.116;2022-11-30T06:57:14;43.42;;;23.05;;
21741;SDS011;11033;47.490;11.116;2022-11-30T06:59:39;33.63;;;19.90;;
21741;SDS011;11033;47.490;11.116;2022-11-30T07:02:14;55.80;;;26.35;;
21741;SDS011;11033;47.490;11.116;2022-11-30T07:04:40;48.00;;;25.48;;
21741;SDS011;11033;47.490;11.116;2022-11-30T07:07:06;44.55;;;24.50;;
21741;SDS011;11033;47.490;11.116;2022-11-30T07:09:34;43.60;;;23.20;;
21741;SDS011;11033;47.490;11.116;2022-11-30T07:12:00;57.83;;;27.73;;
21741;SDS011;11033;47.490;11.116;2022-11-30T07:14:26;42.13;;;21.35;;
21741;SDS011;11033;47.490;11.116;2022-11-30T07:16:51;41.67;;;22.45;;
21741;SDS011;11033;47.490;11.116;2022-11-30T07:19:17;41.08;;;19.83;;
21741;SDS011;11033;47.490;11.116;2022-11-30T07:21:42;42.17;;;20.23;;
21741;SDS011;11033;47.490;11.116;2022-11-30T07:24:10;41.05;;;21.42;;
21741;SDS011;11033;47.490;11.116;2022-11-30T07:26:54;40.92;;;20.77;;
21741;SDS011;11033;47.490;11.116;2022-11-30T07:29:22;35.40;;;20.83;;
21741;SDS011;11033;47.490;11.116;2022-11-30T07:31:50;39.20;;;18.93;;
21741;SDS011;11033;47.490;11.116;2022-11-30T07:34:16;34.85;;;18.83;;
21741;SDS011;11033;47.490;11.116;2022-11-30T07:36:42;41.47;;;21.27;;
21741;SDS011;11033;47.490;11.116;2022-11-30T07:39:08;35.22;;;18.67;;
21741;SDS011;11033;47.490;11.116;2022-11-30T07:41:33;41.50;;;20.40;;
21741;SDS011;11033;47.490;11.116;2022-11-30T07:43:58;48.97;;;23.90;;
21741;SDS011;11033;47.490;11.116;2022-11-30T07:46:24;39.70;;;19.23;;
21741;SDS011;11033;47.490;11.116;2022-11-30T07:48:49;33.25;;;17.88;;
21741;SDS011;11033;47.490;11.116;2022-11-30T07:51:16;36.92;;;18.58;;
21741;SDS011;11033;47.490;11.116;2022-11-30T07:53:43;39.08;;;18.73;;
21741;SDS011;11033;47.490;11.116;2022-11-30T07:56:13;32.90;;;18.73;;
21741;SDS011;11033;47.490;11.116;2022-11-30T08:01:09;37.38;;;19.88;;
21741;SDS011;11033;47.490;11.116;2022-11-30T08:03:36;33.50;;;18.17;;
21741;SDS011;11033;47.490;11.116;2022-11-30T08:06:06;35.55;;;20.75;;
21741;SDS011;11033;47.490;11.116;2022-11-30T08:08:36;35.70;;;19.20;;
21741;SDS011;11033;47.490;11.116;2022-11-30T08:11:03;37.55;;;20.25;;
21741;SDS011;11033;47.490;11.116;2022-11-30T08:13:29;43.70;;;21.40;;
21741;SDS011;11033;47.490;11.116;2022-11-30T08:15:55;42.80;;;20.55;;
21741;SDS011;11033;47.490;11.116;2022-11-30T08:18:24;41.03;;;20.83;;
21741;SDS011;11033;47.490;11.116;2022-11-30T08:20:55;36.72;;;20.75;;
21741;SDS011;11033;47.490;11.116;2022-11-30T08:23:21;43.72;;;21.55;;
21741;SDS011;11033;47.490;11.116;2022-11-30T08:25:46;44.17;;;22.25;;
21741;SDS011;11033;47.490;11.116;2022-11-30T08:28:12;51.20;;;23.73;;
21741;SDS011;11033;47.490;11.116;2022-11-30T08:30:37;37.33;;;21.00;;
21741;SDS011;11033;47.490;11.116;2022-11-30T08:33:02;38.40;;;19.80;;
21741;SDS011;11033;47.490;11.116;2022-11-30T08:35:27;50.13;;;25.35;;
21741;SDS011;11033;47.490;11.116;2022-11-30T08:37:53;44.75;;;24.58;;
21741;SDS011;11033;47.490;11.116;2022-11-30T08:40:18;56.67;;;27.20;;
21741;SDS011;11033;47.490;11.116;2022-11-30T08:42:43;47.28;;;24.90;;
21741;SDS011;11033;47.490;11.116;2022-11-30T08:45:09;42.03;;;22.67;;
21741;SDS011;11033;47.490;11.116;2022-11-30T08:47:38;49.63;;;25.17;;
21741;SDS011;11033;47.490;11.116;2022-11-30T08:50:03;43.38;;;23.92;;
21741;SDS011;11033;47.490;11.116;2022-11-30T08:52:29;41.78;;;23.08;;
21741;SDS011;11033;47.490;11.116;2022-11-30T08:54:54;45.88;;;23.00;;
21741;SDS011;11033;47.490;11.116;2022-11-30T08:57:20;47.03;;;23.50;;
21741;SDS011;11033;47.490;11.116;2022-11-30T08:59:45;40.90;;;21.52;;
21741;SDS011;11033;47.490;11.116;2022-11-30T09:02:12;49.55;;;24.38;;
21741;SDS011;11033;47.490;11.116;2022-11-30T09:04:41;52.22;;;27.35;;
21741;SDS011;11033;47.490;11.116;2022-11-30T09:07:06;44.72;;;23.83;;
21741;SDS011;11033;47.490;11.116;2022-11-30T09:09:33;49.60;;;25.40;;
21741;SDS011;11033;47.490;11.116;2022-11-30T09:11:59;45.30;;;25.42;;
21741;SDS011;11033;47.490;11.116;2022-11-30T09:14:24;46.85;;;22.90;;
21741;SDS011;11033;47.490;11.116;2022-11-30T09:16:49;54.55;;;27.77;;
21741;SDS011;11033;47.490;11.116;2022-11-30T09:19:16;42.75;;;22.13;;
21741;SDS011;11033;47.490;11.116;2022-11-30T09:21:41;46.00;;;23.60;;
21741;SDS011;11033;47.490;11.116;2022-11-30T09:24:07;48.33;;;24.57;;
21741;SDS011;11033;47.490;11.116;2022-11-30T09:26:32;49.58;;;25.52;;
21741;SDS011;11033;47.490;11.116;2022-11-30T09:28:57;53.17;;;26.10;;
21741;SDS011;11033;47.490;11.116;2022-11-30T09:31:24;48.72;;;24.75;;
21741;SDS011;11033;47.490;11.116;2022-11-30T09:33:51;41.40;;;22.02;;
21741;SDS011;11033;47.490;11.116;2022-11-30T09:36:18;38.33;;;20.73;;
21741;SDS011;11033;47.490;11.116;2022-11-30T09:38:45;41.13;;;20.73;;
21741;SDS011;11033;47.490;11.116;2022-11-30T09:41:32;36.40;;;19.23;;
21741;SDS011;11033;47.490;11.116;2022-11-30T09:49:40;40.35;;;20.63;;
21741;SDS011;11033;47.490;11.116;2022-11-30T09:52:42;36.80;;;19.60;;
21741;SDS011;11033;47.490;11.116;2022-11-30T09:55:03;40.45;;;22.08;;
21741;SDS011;11033;47.490;11.116;2022-11-30T10:00:15;36.45;;;19.42;;
21741;SDS011;11033;47.490;11.116;2022-11-30T10:02:45;35.53;;;20.02;;
21741;SDS011;11033;47.490;11.116;2022-11-30T10:05:14;39.00;;;20.45;;
21741;SDS011;11033;47.490;11.116;2022-11-30T10:07:45;48.60;;;23.85;;
21741;SDS011;11033;47.490;11.116;2022-11-30T10:10:27;42.88;;;22.23;;
21741;SDS011;11033;47.490;11.116;2022-11-30T10:15:51;43.53;;;21.25;;
21741;SDS011;11033;47.490;11.116;2022-11-30T10:24:14;45.65;;;23.17;;
21741;SDS011;11033;47.490;11.116;2022-11-30T10:26:44;42.70;;;21.13;;
21741;SDS011;11033;47.490;11.116;2022-11-30T10:29:18;38.30;;;20.23;;
21741;SDS011;11033;47.490;11.116;2022-11-30T10:36:45;36.55;;;19.63;;
21741;SDS011;11033;47.490;11.116;2022-11-30T10:39:23;34.20;;;18.83;;
21741;SDS011;11033;47.490;11.116;2022-11-30T10:41:56;35.30;;;18.57;;
21741;SDS011;11033;47.490;11.116;2022-11-30T10:44:35;35.35;;;19.77;;
21741;SDS011;11033;47.490;11.116;2022-11-30T10:47:06;30.75;;;18.08;;
21741;SDS011;11033;47.490;11.116;2022-11-30T10:49:40;31.73;;;17.83;;
21741;SDS011;11033;47.490;11.116;2022-11-30T10:52:12;31.02;;;16.50;;
21741;SDS011;11033;47.490;11.116;2022-11-30T10:54:44;37.70;;;20.48;;
21741;SDS011;11033;47.490;11.116;2022-11-30T10:57:10;32.38;;;17.55;;
21741;SDS011;11033;47.490;11.116;2022-11-30T10:59:40;32.28;;;18.33;;
21741;SDS011;11033;47.490;11.116;2022-11-30T11:10:20;27.92;;;15.93;;
21741;SDS011;11033;47.490;11.116;2022-11-30T11:12:52;29.63;;;17.08;;
21741;SDS011;11033;47.490;11.116;2022-11-30T11:15:23;30.63;;;17.40;;
21741;SDS011;11033;47.490;11.116;2022-11-30T11:17:48;34.92;;;19.38;;
21741;SDS011;11033;47.490;11.116;2022-11-30T11:22:58;35.42;;;20.05;;
21741;SDS011;11033;47.490;11.116;2022-11-30T11:25:29;32.55;;;19.08;;
21741;SDS011;11033;47.490;11.116;2022-11-30T11:28:01;30.20;;;17.98;;
21741;SDS011;11033;47.490;11.116;2022-11-30T11:30:30;33.25;;;21.02;;
21741;SDS011;11033;47.490;11.116;2022-11-30T11:33:04;35.28;;;20.25;;
21741;SDS011;11033;47.490;11.116;2022-11-30T11:35:39;35.88;;;19.95;;
21741;SDS011;11033;47.490;11.116;2022-11-30T11:40:57;32.33;;;19.40;;
21741;SDS011;11033;47.490;11.116;2022-11-30T11:43:26;40.13;;;22.65;;
21741;SDS011;11033;47.490;11.116;2022-11-30T11:45:54;36.60;;;20.35;;
21741;SDS011;11033;47.490;11.116;2022-11-30T11:48:26;38.55;;;23.08;;
21741;SDS011;11033;47.490;11.116;2022-11-30T11:51:12;41.42;;;23.92;;
21741;SDS011;11033;47.490;11.116;2022-11-30T11:53:56;36.70;;;20.88;;
21741;SDS011;11033;47.490;11.116;2022-11-30T11:56:25;35.58;;;21.60;;
21741;SDS011;11033;47.490;11.116;2022-11-30T11:59:06;33.53;;;20.08;;
21741;SDS011;11033;47.490;11.116;2022-11-30T12:04:33;34.25;;;20.15;;
21741;SDS011;11033;47.490;11.116;2022-11-30T12:12:37;39.38;;;21.23;;
21741;SDS011;11033;47.490;11.116;2022-11-30T12:15:02;37.33;;;22.00;;
21741;SDS011;11033;47.490;11.116;2022-11-30T12:17:41;42.17;;;23.10;;
21741;SDS011;11033;47.490;11.116;2022-11-30T12:20:24;40.50;;;23.00;;
21741;SDS011;11033;47.490;11.116;2022-11-30T12:23:07;39.90;;;21.38;;
21741;SDS011;11033;47.490;11.116;2022-11-30T12:36:38;41.00;;;23.77;;
21741;SDS011;11033;47.490;11.116;2022-11-30T12:42:12;42.60;;;24.05;;
21741;SDS011;11033;47.490;11.116;2022-11-30T12:47:17;47.33;;;27.38;;
21741;SDS011;11033;47.490;11.116;2022-11-30T12:49:54;48.85;;;29.35;;
21741;SDS011;11033;47.490;11.116;2022-11-30T12:55:16;46.53;;;26.08;;
21741;SDS011;11033;47.490;11.116;2022-11-30T13:00:33;36.17;;;19.90;;
21741;SDS011;11033;47.490;11.116;2022-11-30T13:05:46;39.15;;;22.10;;
21741;SDS011;11033;47.490;11.116;2022-11-30T13:10:54;33.20;;;18.63;;
21741;SDS011;11033;47.490;11.116;2022-11-30T13:13:25;32.00;;;19.70;;
21741;SDS011;11033;47.490;11.116;2022-11-30T13:15:54;43.03;;;22.25;;
21741;SDS011;11033;47.490;11.116;2022-11-30T13:18:21;41.25;;;23.77;;
21741;SDS011;11033;47.490;11.116;2022-11-30T13:21:01;31.00;;;19.55;;
21741;SDS011;11033;47.490;11.116;2022-11-30T13:23:34;30.92;;;18.67;;
21741;SDS011;11033;47.490;11.116;2022-11-30T13:26:07;37.42;;;21.48;;
21741;SDS011;11033;47.490;11.116;2022-11-30T13:39:15;34.13;;;20.33;;
21741;SDS011;11033;47.490;11.116;2022-11-30T13:42:07;37.85;;;22.13;;
21741;SDS011;11033;47.490;11.116;2022-11-30T13:44:34;34.50;;;21.58;;
21741;SDS011;11033;47.490;11.116;2022-11-30T13:47:02;34.53;;;19.92;;
21741;SDS011;11033;47.490;11.116;2022-11-30T13:49:30;34.00;;;20.02;;
21741;SDS011;11033;47.490;11.116;2022-11-30T13:51:58;38.45;;;21.77;;
21741;SDS011;11033;47.490;11.116;2022-11-30T13:54:40;32.88;;;20.58;;
21741;SDS011;11033;47.490;11.116;2022-11-30T13:59:53;39.55;;;20.92;;
21741;SDS011;11033;47.490;11.116;2022-11-30T14:10:27;36.55;;;21.83;;
21741;SDS011;11033;47.490;11.116;2022-11-30T14:17:55;30.97;;;19.10;;
21741;SDS011;11033;47.490;11.116;2022-11-30T14:20:21;33.83;;;19.77;;
21741;SDS011;11033;47.490;11.116;2022-11-30T14:22:51;31.67;;;18.63;;
21741;SDS011;11033;47.490;11.116;2022-11-30T14:25:17;34.08;;;19.38;;
21741;SDS011;11033;47.490;11.116;2022-11-30T14:27:44;28.95;;;18.13;;
21741;SDS011;11033;47.490;11.116;2022-11-30T14:30:19;30.73;;;18.63;;
21741;SDS011;11033;47.490;11.116;2022-11-30T14:33:00;27.30;;;16.83;;
21741;SDS011;11033;47.490;11.116;2022-11-30T14:35:30;28.83;;;16.88;;
21741;SDS011;11033;47.490;11.116;2022-11-30T14:37:58;28.02;;;17.35;;
21741;SDS011;11033;47.490;11.116;2022-11-30T14:40:26;33.50;;;19.88;;
21741;SDS011;11033;47.490;11.116;2022-11-30T14:42:58;30.52;;;19.02;;
21741;SDS011;11033;47.490;11.116;2022-11-30T14:45:26;30.17;;;17.23;;
21741;SDS011;11033;47.490;11.116;2022-11-30T14:48:06;33.55;;;18.20;;
21741;SDS011;11033;47.490;11.116;2022-11-30T14:50:32;28.10;;;17.23;;
21741;SDS011;11033;47.490;11.116;2022-11-30T14:53:06;26.13;;;16.05;;
21741;SDS011;11033;47.490;11.116;2022-11-30T15:00:53;26.30;;;16.98;;
21741;SDS011;11033;47.490;11.116;2022-11-30T15:03:20;27.33;;;16.65;;
21741;SDS011;11033;47.490;11.116;2022-11-30T15:05:48;24.92;;;15.70;;
21741;SDS011;11033;47.490;11.116;2022-11-30T15:08:15;21.52;;;14.52;;
21741;SDS011;11033;47.490;11.116;2022-11-30T15:10:42;21.67;;;13.18;;
21741;SDS011;11033;47.490;11.116;2022-11-30T15:13:10;26.15;;;16.13;;
21741;SDS011;11033;47.490;11.116;2022-11-30T15:15:39;23.67;;;15.73;;
21741;SDS011;11033;47.490;11.116;2022-11-30T15:18:15;25.73;;;15.68;;
21741;SDS011;11033;47.490;11.116;2022-11-30T15:20:43;35.25;;;15.43;;
21741;SDS011;11033;47.490;11.116;2022-11-30T15:23:12;26.17;;;15.70;;
21741;SDS011;11033;47.490;11.116;2022-11-30T15:25:42;27.20;;;15.98;;
21741;SDS011;11033;47.490;11.116;2022-11-30T15:28:59;28.45;;;16.70;;
21741;SDS011;11033;47.490;11.116;2022-11-30T15:33:42;24.25;;;14.07;;
21741;SDS011;11033;47.490;11.116;2022-11-30T15:36:09;19.92;;;13.40;;
21741;SDS011;11033;47.490;11.116;2022-11-30T15:38:35;23.75;;;15.32;;
21741;SDS011;11033;47.490;11.116;2022-11-30T15:41:05;32.17;;;16.63;;
21741;SDS011;11033;47.490;11.116;2022-11-30T15:43:37;19.58;;;13.35;;
21741;SDS011;11033;47.490;11.116;2022-11-30T15:46:04;25.73;;;16.35;;
21741;SDS011;11033;47.490;11.116;2022-11-30T15:48:31;20.15;;;13.23;;
21741;SDS011;11033;47.490;11.116;2022-11-30T15:51:02;27.27;;;15.68;;
21741;SDS011;11033;47.490;11.116;2022-11-30T15:53:29;20.63;;;13.50;;
21741;SDS011;11033;47.490;11.116;2022-11-30T15:56:23;23.42;;;14.13;;
21741;SDS011;11033;47.490;11.116;2022-11-30T16:01:50;19.33;;;13.57;;
21741;SDS011;11033;47.490;11.116;2022-11-30T16:04:57;20.10;;;13.20;;
21741;SDS011;11033;47.490;11.116;2022-11-30T16:07:34;42.88;;;30.83;;
21741;SDS011;11033;47.490;11.116;2022-11-30T16:10:05;26.75;;;18.45;;
21741;SDS011;11033;47.490;11.116;2022-11-30T16:12:37;25.70;;;14.60;;
21741;SDS011;11033;47.490;11.116;2022-11-30T16:15:14;22.40;;;13.68;;
21741;SDS011;11033;47.490;11.116;2022-11-30T16:17:42;22.35;;;12.90;;
21741;SDS011;11033;47.490;11.116;2022-11-30T16:20:09;23.00;;;12.90;;
21741;SDS011;11033;47.490;11.116;2022-11-30T16:22:37;19.27;;;12.63;;
21741;SDS011;11033;47.490;11.116;2022-11-30T16:25:05;22.85;;;13.20;;
21741;SDS011;11033;47.490;11.116;2022-11-30T16:27:31;17.58;;;11.73;;